Time;durP1;ratioP1;P1;durP2;ratioP2;P2;SDS_P1;SDS_P2;PMS_P1;PMS_P2;Temp;Humidity;BMP_temperature;BMP_pressure;BME280_temperature;BME280_humidity;BME280_pressure;Samples;Min_cycle;Max_cycle;Signal;HPM_P1;HPM_P2
2022/10/13 00:00:54;;;;;;;26.65;24.30;;;16.70;91.20;;;;;;4940286;28;20484;-80
2022/10/13 00:03:20;;;;;;;27.00;24.38;;;16.60;91.30;;;;;;4965854;28;20053;-80
2022/10/13 00:05:47;;;;;;;25.90;23.50;;;16.60;91.50;;;;;;4984713;28;20021;-80
2022/10/13 00:08:14;;;;;;;26.35;23.77;;;16.60;91.40;;;;;;5011539;28;20034;-79
2022/10/13 00:10:40;;;;;;;28.15;24.60;;;16.50;91.40;;;;;;5011678;28;20045;-80
2022/10/13 00:13:07;;;;;;;25.67;23.15;;;16.50;91.50;;;;;;4998350;28;20049;-80
2022/10/13 00:15:37;;;;;;;24.67;22.50;;;16.50;91.50;;;;;;4946825;28;20031;-80
2022/10/13 00:18:04;;;;;;;25.33;23.23;;;16.50;91.50;;;;;;4977665;28;20038;-79
2022/10/13 00:20:30;;;;;;;26.27;23.70;;;16.40;91.70;;;;;;4990853;28;20046;-80
2022/10/13 00:22:56;;;;;;;25.40;22.95;;;16.40;91.70;;;;;;4976312;28;20049;-80
2022/10/13 00:25:22;;;;;;;26.75;23.95;;;16.40;91.60;;;;;;4971882;28;20419;-79
2022/10/13 00:27:48;;;;;;;26.27;23.90;;;16.40;91.60;;;;;;4970882;28;20027;-80
2022/10/13 00:30:14;;;;;;;26.27;23.88;;;16.40;91.90;;;;;;4988118;28;20030;-80
2022/10/13 00:32:40;;;;;;;26.58;23.83;;;16.40;91.80;;;;;;4972253;28;20039;-79
2022/10/13 00:35:06;;;;;;;27.42;24.85;;;16.40;91.70;;;;;;4990978;28;20037;-80
2022/10/13 00:37:33;;;;;;;27.02;24.35;;;16.50;91.60;;;;;;4992558;28;20050;-80
2022/10/13 00:39:59;;;;;;;27.05;24.65;;;16.50;91.60;;;;;;4988532;28;20042;-80
2022/10/13 00:42:26;;;;;;;28.00;25.45;;;16.40;91.90;;;;;;4990326;28;20030;-80
2022/10/13 00:45:04;;;;;;;27.55;25.02;;;16.40;91.70;;;;;;4979023;28;20051;-80
2022/10/13 00:47:40;;;;;;;28.13;25.02;;;16.50;91.80;;;;;;4956876;28;20030;-80
2022/10/13 00:50:09;;;;;;;27.75;25.42;;;16.50;91.80;;;;;;4986031;28;20037;-79
2022/10/13 00:52:35;;;;;;;27.52;25.15;;;16.50;91.80;;;;;;4951946;28;20038;-79
2022/10/13 00:55:01;;;;;;;27.88;25.40;;;16.50;91.70;;;;;;4975189;28;20026;-80
2022/10/13 00:57:28;;;;;;;28.92;25.95;;;16.50;91.90;;;;;;4990388;28;20031;-80
2022/10/13 00:59:54;;;;;;;29.50;26.35;;;16.40;91.80;;;;;;4989915;28;20409;-80
2022/10/13 01:02:20;;;;;;;28.55;26.00;;;16.40;91.70;;;;;;4990114;28;20039;-80
2022/10/13 01:04:46;;;;;;;28.80;26.30;;;16.40;91.80;;;;;;4976353;28;20034;-80
2022/10/13 01:07:13;;;;;;;28.83;26.17;;;16.40;91.80;;;;;;4985108;28;20039;-80
2022/10/13 01:09:41;;;;;;;29.50;26.70;;;16.40;91.80;;;;;;4956195;28;20043;-80
2022/10/13 01:12:31;;;;;;;30.65;27.52;;;16.40;91.80;;;;;;4960564;28;20045;-80
2022/10/13 01:15:21;;;;;;;30.42;27.73;;;16.40;91.80;;;;;;4981594;28;20035;-79
2022/10/13 01:17:52;;;;;;;31.05;27.95;;;16.30;92.00;;;;;;5004524;28;20388;-80
2022/10/13 01:20:39;;;;;;;31.17;28.05;;;16.30;91.90;;;;;;4974751;28;20046;-80
2022/10/13 01:23:29;;;;;;;30.00;27.48;;;16.30;92.00;;;;;;4997744;28;20025;-79
2022/10/13 01:26:26;;;;;;;31.95;29.00;;;16.30;91.90;;;;;;4991183;28;20039;-80
2022/10/13 01:28:52;;;;;;;31.25;28.38;;;16.30;92.00;;;;;;4993417;28;20041;-80
2022/10/13 01:31:19;;;;;;;32.65;29.95;;;16.20;91.90;;;;;;4990338;28;20042;-80
2022/10/13 01:34:08;;;;;;;35.08;32.05;;;16.10;92.10;;;;;;4999078;28;20136;-80
2022/10/13 01:36:54;;;;;;;36.42;33.45;;;16.10;92.60;;;;;;4991600;28;20042;-80
2022/10/13 01:39:28;;;;;;;36.28;32.72;;;16.10;92.20;;;;;;4992466;28;20038;-80
2022/10/13 01:41:59;;;;;;;35.28;32.10;;;16.10;92.30;;;;;;4994929;28;20349;-80
2022/10/13 01:44:27;;;;;;;34.75;31.85;;;16.10;92.20;;;;;;4994356;28;20042;-80
2022/10/13 01:46:54;;;;;;;35.22;32.33;;;16.10;92.10;;;;;;4994672;28;20042;-80
2022/10/13 01:49:23;;;;;;;33.85;31.00;;;16.10;92.20;;;;;;4989134;28;20038;-80
2022/10/13 01:51:49;;;;;;;35.00;32.17;;;16.10;92.20;;;;;;4978793;28;20037;-80
2022/10/13 01:54:15;;;;;;;34.45;31.42;;;16.10;92.20;;;;;;4978033;28;20384;-79
2022/10/13 01:56:41;;;;;;;35.10;32.38;;;16.10;92.20;;;;;;4979517;28;20022;-80
2022/10/13 01:59:09;;;;;;;36.30;32.90;;;16.00;92.20;;;;;;4996473;28;20034;-79
2022/10/13 02:01:42;;;;;;;35.13;32.50;;;16.00;92.20;;;;;;4993295;28;20034;-80
2022/10/13 02:04:26;;;;;;;34.70;31.98;;;16.10;92.20;;;;;;4997732;28;20034;-79
2022/10/13 02:07:02;;;;;;;34.65;31.50;;;16.00;92.20;;;;;;5003020;28;20026;-80
2022/10/13 02:09:40;;;;;;;36.20;32.97;;;16.10;92.20;;;;;;5004657;28;20026;-80
2022/10/13 02:12:12;;;;;;;35.45;32.50;;;16.10;92.10;;;;;;4995217;28;20026;-80
2022/10/13 02:14:39;;;;;;;36.38;33.28;;;16.10;92.10;;;;;;5009416;28;20049;-80
2022/10/13 02:17:06;;;;;;;36.45;33.63;;;16.10;92.10;;;;;;5010684;28;20034;-80
2022/10/13 02:19:33;;;;;;;35.92;33.17;;;16.10;92.20;;;;;;5013033;28;20041;-80
2022/10/13 02:21:59;;;;;;;37.75;34.83;;;16.10;92.10;;;;;;4992707;28;20046;-80
2022/10/13 02:24:25;;;;;;;39.08;36.35;;;16.00;92.50;;;;;;4992678;28;20054;-80
2022/10/13 02:26:51;;;;;;;38.63;35.42;;;15.90;92.50;;;;;;5009414;28;20034;-80
2022/10/13 02:29:18;;;;;;;40.40;37.50;;;16.00;92.50;;;;;;5012006;28;20038;-80
2022/10/13 02:31:44;;;;;;;41.22;38.53;;;15.90;92.60;;;;;;5012617;28;20487;-80
2022/10/13 02:34:11;;;;;;;41.38;38.17;;;15.90;92.80;;;;;;5011615;28;20394;-80
2022/10/13 02:36:37;;;;;;;38.13;35.03;;;15.90;92.60;;;;;;5009370;28;20037;-80
2022/10/13 02:39:04;;;;;;;39.10;36.17;;;16.00;92.40;;;;;;5009853;28;20018;-80
2022/10/13 02:41:30;;;;;;;39.95;36.42;;;16.00;92.40;;;;;;4997011;28;20029;-80
2022/10/13 02:43:56;;;;;;;40.03;37.13;;;16.00;92.40;;;;;;5012319;28;20402;-80
2022/10/13 02:46:23;;;;;;;43.53;40.38;;;16.00;92.40;;;;;;5000926;28;20054;-79
2022/10/13 02:48:49;;;;;;;42.47;39.17;;;15.90;92.40;;;;;;4979569;28;20049;-80
2022/10/13 02:51:15;;;;;;;41.63;38.40;;;15.90;92.70;;;;;;4991232;28;20031;-80
2022/10/13 02:53:41;;;;;;;44.15;41.05;;;15.90;92.50;;;;;;4993126;28;20043;-80
2022/10/13 02:56:07;;;;;;;44.70;41.28;;;15.90;92.50;;;;;;4976284;28;20027;-81
2022/10/13 02:58:34;;;;;;;42.83;39.72;;;16.00;92.40;;;;;;4981084;28;20296;-80
2022/10/13 03:01:11;;;;;;;42.47;39.53;;;16.00;92.50;;;;;;4978794;28;20022;-81
2022/10/13 03:03:37;;;;;;;44.53;41.13;;;16.00;92.50;;;;;;4971993;28;20027;-80
2022/10/13 03:06:03;;;;;;;42.10;39.05;;;16.00;92.50;;;;;;4981796;28;20040;-80
2022/10/13 03:08:31;;;;;;;41.83;38.88;;;16.00;92.50;;;;;;5012653;28;20025;-80
2022/10/13 03:10:57;;;;;;;44.40;40.85;;;16.00;92.50;;;;;;4978614;28;20038;-81
2022/10/13 03:13:23;;;;;;;44.72;41.50;;;16.00;92.50;;;;;;4976767;28;20138;-80
2022/10/13 03:15:49;;;;;;;46.35;43.13;;;16.00;92.60;;;;;;5006299;28;20026;-81
2022/10/13 03:18:15;;;;;;;48.92;45.10;;;16.00;92.60;;;;;;4978591;28;20038;-81
2022/10/13 03:20:41;;;;;;;50.25;46.85;;;16.00;92.60;;;;;;4993412;28;20050;-81
2022/10/13 03:23:07;;;;;;;48.53;45.42;;;15.90;93.00;;;;;;4993072;28;20468;-81
2022/10/13 03:25:34;;;;;;;48.20;45.00;;;15.90;92.80;;;;;;4985703;28;20038;-81
2022/10/13 03:28:00;;;;;;;42.67;39.88;;;15.90;92.70;;;;;;4973480;28;20030;-80
2022/10/13 03:30:26;;;;;;;49.10;45.53;;;16.00;93.00;;;;;;4943554;28;20488;-80
2022/10/13 03:32:53;;;;;;;51.72;48.22;;;16.00;92.90;;;;;;4980915;28;20045;-80
2022/10/13 03:35:19;;;;;;;49.47;45.83;;;16.00;92.90;;;;;;4992066;28;20165;-80
2022/10/13 03:37:45;;;;;;;49.33;45.83;;;16.00;92.90;;;;;;4955954;28;20054;-80
2022/10/13 03:40:11;;;;;;;52.15;48.90;;;16.00;92.90;;;;;;4991591;28;20034;-80
2022/10/13 03:42:37;;;;;;;51.85;48.33;;;16.00;92.90;;;;;;4992944;28;20376;-79
2022/10/13 03:45:04;;;;;;;51.58;47.97;;;16.00;92.90;;;;;;4976967;28;20066;-80
2022/10/13 03:47:31;;;;;;;52.65;49.08;;;16.00;92.90;;;;;;4964616;28;20026;-80
2022/10/13 03:49:57;;;;;;;52.35;48.78;;;16.00;92.90;;;;;;4973948;28;20034;-80
2022/10/13 03:52:23;;;;;;;51.22;47.92;;;15.90;92.90;;;;;;4981081;28;20368;-80
2022/10/13 03:54:49;;;;;;;48.95;45.75;;;15.90;93.00;;;;;;4993518;28;20034;-79
2022/10/13 03:57:15;;;;;;;49.70;45.55;;;15.90;93.00;;;;;;4976012;28;20022;-79
2022/10/13 03:59:42;;;;;;;47.72;44.17;;;15.90;93.00;;;;;;4992470;28;20045;-79
2022/10/13 04:02:08;;;;;;;48.53;44.42;;;15.90;92.90;;;;;;4975365;28;20023;-79
2022/10/13 04:04:34;;;;;;;47.65;44.20;;;15.90;93.00;;;;;;4974602;28;20498;-79
2022/10/13 04:07:00;;;;;;;43.67;40.40;;;15.90;93.10;;;;;;4983265;28;20388;-81
2022/10/13 04:09:26;;;;;;;46.45;43.25;;;15.90;93.10;;;;;;4992025;28;20023;-81
2022/10/13 04:11:52;;;;;;;48.13;44.72;;;15.90;93.00;;;;;;4991668;28;20495;-81
2022/10/13 04:14:19;;;;;;;40.10;37.22;;;15.90;93.10;;;;;;4976034;28;20037;-81
2022/10/13 04:16:45;;;;;;;36.97;34.30;;;15.90;93.10;;;;;;4959044;28;20034;-81
2022/10/13 04:19:12;;;;;;;36.35;33.67;;;15.90;93.30;;;;;;4959556;28;20085;-81
2022/10/13 04:21:38;;;;;;;41.88;38.63;;;15.80;93.40;;;;;;4991536;28;20042;-81
2022/10/13 04:24:05;;;;;;;41.20;38.20;;;15.80;93.50;;;;;;4974516;28;20038;-81
2022/10/13 04:26:32;;;;;;;38.38;35.47;;;15.90;93.40;;;;;;4975161;28;20038;-81
2022/10/13 04:28:59;;;;;;;37.20;34.50;;;15.80;93.60;;;;;;4992844;28;20027;-81
2022/10/13 04:31:26;;;;;;;34.13;31.38;;;15.80;93.60;;;;;;4975278;28;20034;-81
2022/10/13 04:33:52;;;;;;;32.42;30.00;;;15.80;93.70;;;;;;4990880;28;20053;-81
2022/10/13 04:36:19;;;;;;;32.28;29.60;;;15.80;93.80;;;;;;4949297;28;20051;-81
2022/10/13 04:38:45;;;;;;;32.30;29.58;;;15.70;94.00;;;;;;4972371;28;20031;-81
2022/10/13 04:41:11;;;;;;;32.50;29.85;;;15.70;94.10;;;;;;4956792;28;20039;-81
2022/10/13 04:43:37;;;;;;;31.52;29.25;;;15.70;94.10;;;;;;4976088;28;20030;-81
2022/10/13 04:46:14;;;;;;;32.08;29.17;;;15.70;93.90;;;;;;4954770;28;20062;-81
2022/10/13 04:48:40;;;;;;;31.25;28.98;;;15.70;93.90;;;;;;4972083;28;20043;-81
2022/10/13 04:51:14;;;;;;;31.48;28.77;;;15.80;93.80;;;;;;4940289;28;20061;-81
2022/10/13 04:53:40;;;;;;;32.13;29.35;;;15.80;93.90;;;;;;4956228;28;20035;-81
2022/10/13 04:56:08;;;;;;;31.05;28.83;;;15.80;93.80;;;;;;4972308;28;20019;-81
2022/10/13 04:58:35;;;;;;;30.63;28.00;;;15.80;94.20;;;;;;4950478;28;20493;-81
2022/10/13 05:01:02;;;;;;;30.65;28.20;;;15.70;94.30;;;;;;4987932;28;20375;-81
2022/10/13 05:03:28;;;;;;;28.55;26.33;;;15.80;94.30;;;;;;4984400;28;20387;-83
2022/10/13 05:05:54;;;;;;;34.33;31.90;;;15.60;94.40;;;;;;4966570;28;20054;-83
2022/10/13 05:08:20;;;;;;;184.52;45.58;;;15.60;94.40;;;;;;4960117;28;20031;-83
2022/10/13 05:10:57;;;;;;;34.85;32.33;;;15.60;94.50;;;;;;4959799;28;20352;-82
2022/10/13 05:13:24;;;;;;;32.78;30.58;;;15.60;94.50;;;;;;4969684;28;20045;-82
2022/10/13 05:15:50;;;;;;;31.50;29.35;;;15.70;94.40;;;;;;4946092;28;20034;-84
2022/10/13 05:18:16;;;;;;;33.70;31.13;;;15.80;94.20;;;;;;4968611;28;20392;-81
2022/10/13 05:20:42;;;;;;;32.53;30.08;;;15.80;94.30;;;;;;4982773;28;20495;-82
2022/10/13 05:23:08;;;;;;;32.58;30.25;;;15.70;94.30;;;;;;4980417;28;20046;-84
2022/10/13 05:25:35;;;;;;;30.30;27.88;;;15.70;94.50;;;;;;4947630;28;20061;-84
2022/10/13 05:28:02;;;;;;;30.23;28.23;;;15.60;94.70;;;;;;4970850;28;20061;-84
2022/10/13 05:30:28;;;;;;;31.85;29.58;;;15.50;94.90;;;;;;4978309;28;20475;-83
2022/10/13 05:32:54;;;;;;;28.92;26.90;;;15.50;94.90;;;;;;4948095;28;20045;-83
2022/10/13 05:35:20;;;;;;;29.88;27.73;;;15.60;94.60;;;;;;4977885;28;20050;-81
2022/10/13 05:37:46;;;;;;;31.98;29.73;;;15.50;94.80;;;;;;4963658;28;20038;-82
2022/10/13 05:40:13;;;;;;;28.00;25.98;;;15.60;94.60;;;;;;4978049;28;20022;-82
2022/10/13 05:42:39;;;;;;;29.17;27.20;;;15.50;94.90;;;;;;4979043;28;20366;-81
2022/10/13 05:45:07;;;;;;;27.80;25.92;;;15.40;95.00;;;;;;4978421;28;20511;-84
2022/10/13 05:47:33;;;;;;;29.17;26.80;;;15.50;94.90;;;;;;4947064;28;20035;-84
2022/10/13 05:49:59;;;;;;;26.48;24.42;;;15.50;95.00;;;;;;4979699;28;20042;-83
2022/10/13 05:52:25;;;;;;;25.95;24.15;;;15.50;95.00;;;;;;4944569;28;20046;-83
2022/10/13 05:54:55;;;;;;;24.65;22.77;;;15.50;94.90;;;;;;4961495;28;20053;-82
2022/10/13 05:57:25;;;;;;;25.00;23.15;;;15.60;94.60;;;;;;4979053;28;20624;-82
2022/10/13 05:59:54;;;;;;;24.10;22.13;;;15.70;94.50;;;;;;4979008;28;20034;-81
2022/10/13 06:02:21;;;;;;;23.95;22.23;;;15.70;94.40;;;;;;4963424;28;20038;-82
2022/10/13 06:04:48;;;;;;;24.08;22.48;;;15.70;94.40;;;;;;4965313;28;20057;-83
2022/10/13 06:07:14;;;;;;;24.95;23.30;;;15.70;94.40;;;;;;4977736;28;20388;-81
2022/10/13 06:09:40;;;;;;;24.92;23.15;;;15.70;94.30;;;;;;4978604;28;20034;-88
2022/10/13 06:12:07;;;;;;;24.40;22.65;;;15.70;94.30;;;;;;4964921;28;20038;-86
2022/10/13 06:14:33;;;;;;;25.60;23.80;;;15.70;94.20;;;;;;4976871;28;20033;-86
2022/10/13 06:16:59;;;;;;;25.88;23.67;;;15.70;94.30;;;;;;4985057;28;20421;-86
2022/10/13 06:19:25;;;;;;;26.38;24.33;;;15.70;94.30;;;;;;4958555;28;20042;-92
2022/10/13 06:21:51;;;;;;;26.60;24.80;;;15.70;94.50;;;;;;4960916;28;20043;-91
2022/10/13 06:24:18;;;;;;;25.13;23.23;;;15.70;94.60;;;;;;4962086;28;20498;-92
2022/10/13 06:26:44;;;;;;;25.67;23.77;;;15.70;94.50;;;;;;4963944;28;20046;-90
2022/10/13 06:29:10;;;;;;;25.08;23.27;;;15.70;94.40;;;;;;4998986;28;20038;-91
2022/10/13 06:31:36;;;;;;;26.30;23.95;;;15.70;94.40;;;;;;4983893;28;20050;-90
2022/10/13 06:34:02;;;;;;;26.38;24.35;;;15.70;94.30;;;;;;4982151;28;20471;-88
2022/10/13 06:36:28;;;;;;;27.00;25.05;;;15.60;94.40;;;;;;4980673;28;20030;-90
2022/10/13 06:38:54;;;;;;;27.75;25.60;;;15.60;94.80;;;;;;4980726;28;20434;-92
2022/10/13 06:41:21;;;;;;;26.85;24.80;;;15.50;95.00;;;;;;4981877;28;20034;-92
2022/10/13 06:43:47;;;;;;;25.75;23.75;;;15.60;95.00;;;;;;4986437;28;20046;-91
2022/10/13 06:46:13;;;;;;;26.50;24.30;;;15.60;94.80;;;;;;4977097;28;20058;-87
2022/10/13 06:48:39;;;;;;;24.42;22.33;;;15.70;94.90;;;;;;4976687;28;20049;-83
2022/10/13 06:51:07;;;;;;;24.25;22.25;;;15.70;94.80;;;;;;4993100;28;20045;-91
2022/10/13 06:53:33;;;;;;;27.20;24.98;;;15.60;95.00;;;;;;4974319;28;20043;-90
2022/10/13 06:56:02;;;;;;;27.27;24.58;;;15.60;95.10;;;;;;4977403;28;20037;-92
2022/10/13 06:58:29;;;;;;;25.42;23.67;;;15.50;95.60;;;;;;4960629;28;20045;-91
2022/10/13 07:00:55;;;;;;;27.08;24.90;;;15.50;95.40;;;;;;4976422;28;20031;-90
2022/10/13 07:03:22;;;;;;;28.40;26.00;;;15.50;95.40;;;;;;4974006;28;20043;-85
2022/10/13 07:05:48;;;;;;;26.27;24.25;;;15.60;95.30;;;;;;5000832;28;20040;-85
2022/10/13 07:08:14;;;;;;;25.35;23.13;;;15.70;95.10;;;;;;5000509;28;20394;-85
2022/10/13 07:10:41;;;;;;;24.08;21.98;;;15.80;95.00;;;;;;4970908;28;20046;-85
2022/10/13 07:13:07;;;;;;;24.73;22.58;;;15.80;94.80;;;;;;4986979;28;20077;-83
2022/10/13 07:15:35;;;;;;;24.55;22.38;;;15.80;94.80;;;;;;4992839;28;20027;-84
2022/10/13 07:18:02;;;;;;;26.35;24.27;;;15.90;94.80;;;;;;4955393;28;20042;-83
2022/10/13 07:20:28;;;;;;;28.20;25.95;;;15.90;94.90;;;;;;4969064;28;20049;-83
2022/10/13 07:22:54;;;;;;;29.63;26.92;;;15.80;95.10;;;;;;4975327;28;20488;-83
2022/10/13 07:25:20;;;;;;;30.40;27.60;;;15.80;95.20;;;;;;4991047;28;20038;-82
2022/10/13 07:27:46;;;;;;;31.58;29.08;;;15.80;95.20;;;;;;4960259;28;20030;-82
2022/10/13 07:30:12;;;;;;;26.20;23.95;;;15.90;95.30;;;;;;4975541;28;20041;-83
2022/10/13 07:32:40;;;;;;;24.15;22.05;;;15.90;95.40;;;;;;4988047;28;20038;-83
2022/10/13 07:35:10;;;;;;;22.80;20.85;;;16.00;95.40;;;;;;4974865;28;20042;-82
2022/10/13 07:37:36;;;;;;;23.30;21.02;;;16.10;95.40;;;;;;4979178;28;20503;-82
2022/10/13 07:40:06;;;;;;;23.08;21.38;;;16.20;95.40;;;;;;4962914;28;20034;-81
2022/10/13 07:42:32;;;;;;;22.38;20.70;;;16.20;95.40;;;;;;4960685;28;20218;-83
2022/10/13 07:44:58;;;;;;;23.30;21.33;;;16.20;95.40;;;;;;4967394;28;20203;-82
2022/10/13 07:47:24;;;;;;;23.90;21.85;;;16.30;95.30;;;;;;4959940;28;20031;-79
2022/10/13 07:49:50;;;;;;;23.35;21.33;;;16.30;95.50;;;;;;4966243;28;20030;-83
2022/10/13 07:52:16;;;;;;;24.10;22.10;;;16.30;95.70;;;;;;4971260;28;20500;-82
2022/10/13 07:54:43;;;;;;;24.65;22.52;;;16.30;95.40;;;;;;4944811;28;20038;-80
2022/10/13 07:57:09;;;;;;;25.65;23.63;;;16.40;95.60;;;;;;4960724;28;20046;-83
2022/10/13 07:59:35;;;;;;;25.83;23.67;;;16.40;95.50;;;;;;4964645;28;20038;-81
2022/10/13 08:02:01;;;;;;;26.20;24.00;;;16.50;95.40;;;;;;4971926;28;20042;-80
2022/10/13 08:04:31;;;;;;;25.60;23.48;;;16.50;95.70;;;;;;4970017;28;20057;-83
2022/10/13 08:06:57;;;;;;;25.95;24.08;;;16.40;95.80;;;;;;4993365;28;20034;-86
2022/10/13 08:09:24;;;;;;;27.92;25.45;;;16.40;96.10;;;;;;4988037;28;20023;-89
2022/10/13 08:11:50;;;;;;;27.90;25.50;;;16.40;96.10;;;;;;4966088;28;20022;-89
2022/10/13 08:14:16;;;;;;;26.13;24.05;;;16.40;96.10;;;;;;4975942;28;20035;-82
2022/10/13 08:16:44;;;;;;;30.30;27.88;;;16.40;96.20;;;;;;4979999;28;20038;-81
2022/10/13 08:19:14;;;;;;;28.25;25.63;;;16.40;96.30;;;;;;4956263;28;20483;-80
2022/10/13 08:21:41;;;;;;;28.55;26.17;;;16.40;96.60;;;;;;4956368;28;20043;-81
2022/10/13 08:24:11;;;;;;;29.08;26.30;;;16.50;96.50;;;;;;4986611;28;20023;-80
2022/10/13 08:26:38;;;;;;;26.92;24.50;;;16.50;96.30;;;;;;4969092;28;20046;-81
2022/10/13 08:29:04;;;;;;;28.08;25.52;;;16.50;96.30;;;;;;4988355;28;20034;-82
2022/10/13 08:31:30;;;;;;;30.38;27.90;;;16.50;96.40;;;;;;4971197;28;20523;-80
2022/10/13 08:33:56;;;;;;;28.95;26.83;;;16.50;96.30;;;;;;4987050;28;20037;-86
2022/10/13 08:36:22;;;;;;;27.52;25.17;;;16.60;96.30;;;;;;4972712;28;20033;-86
2022/10/13 08:38:48;;;;;;;27.38;25.13;;;16.60;96.30;;;;;;4961910;28;20039;-86
2022/10/13 08:41:31;;;;;;;27.08;24.75;;;16.50;96.40;;;;;;4975567;28;20062;-85
2022/10/13 08:44:05;;;;;;;27.90;25.80;;;16.50;96.50;;;;;;4960162;28;20050;-83
2022/10/13 08:46:42;;;;;;;28.65;26.25;;;16.50;96.80;;;;;;4976181;28;20073;-86
2022/10/13 08:49:08;;;;;;;29.73;27.50;;;16.50;96.60;;;;;;4953854;28;20034;-89
2022/10/13 08:51:35;;;;;;;30.52;27.65;;;16.60;96.20;;;;;;4974239;28;20041;-85
2022/10/13 08:54:01;;;;;;;28.58;25.80;;;16.70;96.10;;;;;;4969300;28;20038;-89
2022/10/13 08:56:33;;;;;;;28.50;26.15;;;16.70;96.20;;;;;;4960993;28;20050;-89
2022/10/13 08:59:00;;;;;;;27.80;25.92;;;16.70;96.10;;;;;;4962811;28;20038;-87
2022/10/13 09:01:30;;;;;;;28.15;26.00;;;16.80;96.00;;;;;;4978745;28;20518;-87
2022/10/13 09:04:18;;;;;;;26.63;24.23;;;16.90;96.00;;;;;;4981454;28;20035;-88
2022/10/13 09:07:07;;;;;;;27.40;24.70;;;16.80;96.20;;;;;;5006022;28;20044;-86
2022/10/13 09:09:33;;;;;;;27.80;25.55;;;16.80;96.00;;;;;;4999102;28;20503;-85
2022/10/13 09:11:59;;;;;;;30.20;27.25;;;16.90;96.00;;;;;;4957159;28;20042;-82
2022/10/13 09:14:27;;;;;;;27.35;25.17;;;16.90;96.20;;;;;;4959313;28;20492;-80
2022/10/13 09:16:55;;;;;;;29.10;26.60;;;16.90;96.30;;;;;;4971895;28;20086;-81
2022/10/13 09:19:29;;;;;;;27.25;25.15;;;16.80;96.20;;;;;;4963090;28;20026;-80
2022/10/13 09:21:57;;;;;;;33.00;30.35;;;16.80;96.30;;;;;;4975008;28;20047;-80
2022/10/13 09:24:24;;;;;;;32.03;29.27;;;16.70;96.50;;;;;;4971414;28;20037;-80
2022/10/13 09:27:05;;;;;;;30.83;27.88;;;16.80;96.50;;;;;;4987458;28;20515;-81
2022/10/13 09:29:31;;;;;;;29.27;26.70;;;16.80;96.40;;;;;;4988481;28;20030;-81
2022/10/13 09:32:15;;;;;;;28.65;25.08;;;16.80;96.50;;;;;;4977576;28;20038;-86
2022/10/13 09:34:41;;;;;;;29.08;26.70;;;16.80;96.50;;;;;;4981748;28;20435;-85
2022/10/13 09:37:22;;;;;;;32.22;29.20;;;16.80;96.40;;;;;;4953290;28;20498;-93
2022/10/13 09:40:11;;;;;;;30.10;27.83;;;16.80;96.50;;;;;;4984669;28;20038;-88
2022/10/13 09:42:37;;;;;;;30.48;28.23;;;16.90;96.50;;;;;;4978003;28;20423;-92
2022/10/13 09:45:16;;;;;;;36.35;33.05;;;16.90;96.40;;;;;;4983633;28;20038;-85
2022/10/13 09:47:53;;;;;;;36.97;33.97;;;17.00;96.50;;;;;;4977282;28;20514;-86
2022/10/13 09:50:22;;;;;;;60.58;55.00;;;17.10;96.40;;;;;;4963809;28;20046;-93
2022/10/13 09:52:48;;;;;;;33.15;30.48;;;17.20;96.30;;;;;;4993579;28;20037;-88
2022/10/13 09:55:30;;;;;;;29.50;27.20;;;17.30;96.20;;;;;;4954675;28;20050;-81
2022/10/13 09:57:58;;;;;;;29.23;26.65;;;17.30;96.00;;;;;;4962573;28;20034;-89
2022/10/13 10:00:25;;;;;;;29.38;27.05;;;17.40;95.80;;;;;;4944602;28;20050;-87
2022/10/13 10:03:03;;;;;;;30.30;27.80;;;17.40;95.90;;;;;;4978752;28;20031;-85
2022/10/13 10:05:50;;;;;;;30.20;27.15;;;17.30;95.80;;;;;;4991244;28;20521;-85
2022/10/13 10:08:27;;;;;;;31.35;28.95;;;17.20;96.00;;;;;;4993106;28;20041;-83
2022/10/13 10:10:53;;;;;;;35.50;32.85;;;17.20;96.20;;;;;;4993875;28;20031;-86
2022/10/13 10:13:19;;;;;;;31.98;29.48;;;17.20;96.20;;;;;;4989947;28;20038;-86
2022/10/13 10:16:00;;;;;;;33.97;31.40;;;17.20;96.20;;;;;;4959027;28;20385;-85
2022/10/13 10:18:26;;;;;;;35.60;33.08;;;17.20;96.20;;;;;;4972581;28;20042;-86
2022/10/13 10:21:03;;;;;;;36.40;33.72;;;17.20;96.40;;;;;;4991359;28;20065;-86
2022/10/13 10:23:38;;;;;;;40.53;37.58;;;17.20;96.10;;;;;;4980463;28;20488;-85
2022/10/13 10:26:09;;;;;;;38.90;36.03;;;17.20;96.20;;;;;;4992713;28;20049;-87
2022/10/13 10:28:57;;;;;;;41.80;38.90;;;17.20;96.40;;;;;;4975558;28;20407;-87
2022/10/13 10:31:39;;;;;;;43.55;40.70;;;17.20;96.30;;;;;;4987654;28;20484;-85
2022/10/13 10:34:33;;;;;;;41.70;38.88;;;17.30;96.50;;;;;;4980815;28;20035;-84
2022/10/13 10:37:17;;;;;;;39.17;36.05;;;17.40;96.40;;;;;;4984273;28;20035;-84
2022/10/13 10:40:05;;;;;;;39.70;36.70;;;17.40;96.50;;;;;;4977969;28;20037;-84
2022/10/13 10:42:53;;;;;;;37.10;34.50;;;17.40;96.60;;;;;;4958350;28;20103;-84
2022/10/13 10:45:29;;;;;;;41.45;38.38;;;17.40;97.00;;;;;;4976521;28;20027;-83
2022/10/13 10:48:15;;;;;;;41.28;38.35;;;17.50;96.80;;;;;;4972040;28;20022;-85
2022/10/13 10:50:41;;;;;;;30.95;28.83;;;17.60;97.10;;;;;;4977819;28;20037;-84
2022/10/13 10:53:38;;;;;;;35.80;33.35;;;17.60;97.00;;;;;;4971200;28;20046;-85
2022/10/13 10:56:43;;;;;;;34.00;31.35;;;17.60;97.10;;;;;;4989685;28;20042;-83
2022/10/13 10:59:47;;;;;;;36.33;33.50;;;17.60;97.10;;;;;;4984655;28;20030;-80
2022/10/13 11:02:36;;;;;;;32.55;29.98;;;17.60;97.10;;;;;;4978017;28;20043;-80
2022/10/13 11:05:02;;;;;;;48.17;43.65;;;17.60;97.00;;;;;;4957507;28;20484;-80
2022/10/13 11:07:28;;;;;;;30.30;28.17;;;17.60;97.00;;;;;;4937809;28;20058;-80
2022/10/13 11:09:56;;;;;;;37.45;34.85;;;17.60;96.80;;;;;;4956664;28;20038;-84
2022/10/13 11:12:22;;;;;;;37.13;34.45;;;17.60;96.80;;;;;;4954956;28;20081;-80
2022/10/13 11:15:04;;;;;;;34.65;32.08;;;17.70;96.60;;;;;;4955089;28;20050;-81
2022/10/13 11:17:37;;;;;;;32.75;30.27;;;17.60;96.50;;;;;;4961440;28;20142;-81
2022/10/13 11:20:19;;;;;;;43.33;39.92;;;17.60;96.50;;;;;;4955734;28;20045;-80
2022/10/13 11:22:57;;;;;;;42.88;39.88;;;17.50;97.00;;;;;;4955805;28;20047;-81
2022/10/13 11:25:38;;;;;;;37.83;35.05;;;17.50;97.20;;;;;;4955724;28;20046;-81
2022/10/13 11:28:20;;;;;;;30.52;27.98;;;17.50;97.10;;;;;;4954942;28;20086;-80
2022/10/13 11:30:54;;;;;;;35.75;33.05;;;17.40;97.40;;;;;;4954614;28;20054;-80
2022/10/13 11:33:38;;;;;;;38.75;35.97;;;17.30;97.80;;;;;;4951794;28;20031;-82
2022/10/13 11:36:46;;;;;;;37.90;35.42;;;17.30;97.80;;;;;;4946337;28;20082;-81
2022/10/13 11:39:26;;;;;;;45.70;42.60;;;17.40;97.90;;;;;;4963605;28;20067;-82
2022/10/13 11:42:11;;;;;;;44.35;41.25;;;17.30;98.00;;;;;;4948091;28;20049;-81
2022/10/13 11:44:56;;;;;;;36.22;33.35;;;17.40;98.20;;;;;;4979118;28;20391;-81
2022/10/13 11:47:52;;;;;;;36.20;33.30;;;17.40;98.10;;;;;;4990315;28;20051;-81
2022/10/13 11:50:32;;;;;;;31.13;28.88;;;17.40;98.10;;;;;;4990386;28;20042;-81
2022/10/13 11:53:18;;;;;;;31.48;28.58;;;17.40;98.30;;;;;;4989209;28;20026;-81
2022/10/13 11:55:50;;;;;;;33.53;30.52;;;17.30;98.70;;;;;;4972479;28;20049;-81
2022/10/13 11:58:29;;;;;;;38.72;35.42;;;17.30;98.90;;;;;;4977282;28;20046;-82
2022/10/13 12:01:05;;;;;;;35.60;32.65;;;17.30;99.20;;;;;;4969727;28;20408;-82
2022/10/13 12:03:33;;;;;;;40.17;37.03;;;17.30;99.40;;;;;;4982728;28;20322;-81
2022/10/13 12:06:15;;;;;;;45.70;42.17;;;17.20;99.30;;;;;;4952986;28;20038;-81
2022/10/13 12:08:49;;;;;;;40.97;37.92;;;17.30;99.30;;;;;;4973900;28;20063;-81
2022/10/13 12:11:28;;;;;;;55.35;51.15;;;17.30;99.20;;;;;;4976586;28;20026;-81
2022/10/13 12:13:55;;;;;;;47.10;43.60;;;17.40;99.00;;;;;;4975357;28;20065;-81
2022/10/13 12:16:21;;;;;;;51.65;48.45;;;17.40;98.80;;;;;;4990625;28;20030;-81
2022/10/13 12:18:47;;;;;;;50.85;47.17;;;17.30;99.00;;;;;;4972625;28;20395;-81
2022/10/13 12:21:19;;;;;;;51.17;48.10;;;17.30;99.10;;;;;;4940332;28;20054;-81
2022/10/13 12:23:46;;;;;;;53.25;49.85;;;17.30;99.30;;;;;;4963660;28;20026;-81
2022/10/13 12:26:30;;;;;;;46.88;43.75;;;17.20;99.40;;;;;;4991398;28;20041;-81
2022/10/13 12:29:00;;;;;;;55.15;51.88;;;17.10;99.60;;;;;;4988796;28;20036;-81
2022/10/13 12:31:39;;;;;;;55.83;52.45;;;17.10;99.70;;;;;;4974008;28;20510;-81
2022/10/13 12:34:26;;;;;;;43.70;40.63;;;17.00;99.90;;;;;;4976935;28;20392;-81
2022/10/13 12:36:57;;;;;;;50.70;47.40;;;17.00;99.90;;;;;;4975151;28;20399;-81
2022/10/13 12:39:24;;;;;;;37.63;35.08;;;17.00;99.90;;;;;;4975579;28;20026;-81
2022/10/13 12:41:50;;;;;;;34.90;32.55;;;17.00;99.90;;;;;;4958719;28;20484;-81